Salina, KS (67401)

3:13 PM CDT on August 31, 2015 (GMT -0500)
Central Salina | | Change Station
CLOSE
Current Station
Personal Weather Station
Location: Salina, KS
Elevation: 1243 ft
Nearby Weather Stations

Elev 1243 ft 38.82 °N, 97.62 °W | Updated 19 seconds ago

Clear
Clear
94.5 °F
Feels Like 97 °F
N
2.7
Wind Variable Wind from ESE
Gusts 3.8 mph

Today
High -- | Low -- °F
--% Chance of Precip.
Yesterday
High -- | Low -- °F
Precip. -- in
6:58 AM 8:02 PM
Waning Gibbous, 94% visible
Pressure 29.86 in
Visibility 10.0 miles
Clouds Clear
Heat Index 97 °F
Dew Point 64 °F
Humidity 37%
Rainfall 0.00 in
Snow Depth Not available.
UV 9 out of 12
Pollen 10.50 out of 12
Air Quality Not available.
Flu Activity Not available.
METAR KSLN 311953Z 17014G20KT 10SM CLR 35/17 A2990 RMK AO2 SLP110 T03500172
Pressure 29.86 in
Visibility 10.0 miles
Clouds Clear
Heat Index 97 °F
Dew Point 64 °F
Humidity 37%
Rainfall 0.00 in
Snow Depth Not available.
UV 9 out of 12
Pollen 10.50 out of 12
Air Quality Not available.
Flu Activity Not available.
METAR KSLN 311953Z 17014G20KT 10SM CLR 35/17 A2990 RMK AO2 SLP110 T03500172

10-Day Weather Forecast

×

Almanac

Astronomy

Aug. 31, 2015 Rise Set
Actual Time
Civil Twilight
Nautical Twilight
Astronomical Twilight
Moon
Length of Visible Light
Length of Day
Tomorrow will be .
, % of the Moon is Illuminated

Today's Extremes

State Highs State Lows

Community

WunderPhotos

Upload Photos

1,851,352 photos uploaded!

WunderBlogs® & News

Nearby

Air Quality

  Air Quality AQ Index Pollutant
Not available.

Snow Depth

Station Depth Elevation

Earthquake Activity

City Distance Mag. Time & Date
Minimum magnitude displayed is 2.5.

Coastal Water Temperatures

Place Temperature

Stations

Nearby Weather Stations

Station Location Temp. Windchill Dew Point Humidity Wind Precip. Elev Updated Type